createdAt,value
2024-03-26T00:00:51.709Z,100.286
2024-03-26T00:01:51.712Z,100.286
2024-03-26T00:02:51.715Z,100.143
2024-03-26T00:03:51.726Z,100.214
2024-03-26T00:04:51.747Z,100.286
2024-03-26T00:05:51.750Z,100.286
2024-03-26T00:06:51.753Z,100.143
2024-03-26T00:07:51.762Z,100.214
2024-03-26T00:08:51.804Z,100.214
2024-03-26T00:09:51.800Z,100.286
2024-03-26T00:10:51.783Z,100.286
2024-03-26T00:11:51.789Z,100.143
2024-03-26T00:12:51.788Z,100.286
2024-03-26T00:13:51.801Z,100.071
2024-03-26T00:14:51.826Z,100.286
2024-03-26T00:15:51.827Z,100.214
2024-03-26T00:16:51.835Z,100.286
2024-03-26T00:17:51.842Z,100.286
2024-03-26T00:18:51.856Z,100.214
2024-03-26T00:19:51.863Z,100.286
2024-03-26T00:20:51.886Z,100.286
2024-03-26T00:21:51.872Z,100.286
2024-03-26T00:22:51.886Z,100.143
2024-03-26T00:23:51.897Z,100.214
2024-03-26T00:24:51.888Z,100.071
2024-03-26T00:25:51.898Z,100.214
2024-03-26T00:26:51.902Z,100.429
2024-03-26T00:27:51.915Z,100.286
2024-03-26T00:28:51.948Z,100.286
2024-03-26T00:29:51.944Z,100.286
2024-03-26T00:30:51.953Z,100.286
2024-03-26T00:31:51.961Z,100.214
2024-03-26T00:32:51.972Z,100.214
2024-03-26T00:33:51.975Z,100.429
2024-03-26T00:34:51.987Z,100.214
2024-03-26T00:35:51.992Z,100.214
2024-03-26T00:36:51.998Z,100.286
2024-03-26T00:37:52.014Z,100.286
2024-03-26T00:38:52.008Z,100.143
2024-03-26T00:39:52.014Z,100.214
2024-03-26T00:40:52.043Z,100.286
2024-03-26T00:41:52.047Z,100.286
2024-03-26T00:42:52.068Z,100.286
2024-03-26T00:43:52.068Z,100.357
2024-03-26T00:44:52.079Z,100.286
2024-03-26T00:45:52.093Z,100.286
2024-03-26T00:46:52.102Z,100.286
2024-03-26T00:47:52.114Z,100.214
2024-03-26T00:48:52.112Z,100.143
2024-03-26T00:49:52.128Z,100.357
2024-03-26T00:50:52.129Z,100.143
2024-03-26T00:51:52.151Z,100.143
2024-03-26T00:52:52.140Z,100.143
2024-03-26T00:53:52.150Z,100.214
2024-03-26T00:54:52.163Z,100.143
2024-03-26T00:55:52.180Z,100.143
2024-03-26T00:56:52.215Z,100.214
2024-03-26T00:57:52.209Z,100.286
2024-03-26T00:58:52.224Z,100.286
2024-03-26T00:59:52.224Z,100.143
2024-03-26T01:00:52.245Z,100.286
2024-03-26T01:01:52.247Z,100.286
2024-03-26T01:02:52.256Z,100.143
2024-03-26T01:03:52.260Z,100.357
2024-03-26T01:04:52.277Z,100.286
2024-03-26T01:05:52.284Z,100.143
2024-03-26T01:06:52.294Z,100.143
2024-03-26T01:07:52.299Z,100.214
2024-03-26T01:08:52.308Z,100.286
2024-03-26T01:09:52.312Z,100.286
2024-03-26T01:10:52.347Z,100.214
2024-03-26T01:11:52.338Z,100.143
2024-03-26T01:12:52.349Z,100.214
2024-03-26T01:13:52.360Z,100.143
2024-03-26T01:14:52.358Z,100.286
2024-03-26T01:15:52.365Z,100.143
2024-03-26T01:16:52.366Z,100.143
2024-03-26T01:17:52.376Z,100.214
2024-03-26T01:18:52.411Z,100.286
2024-03-26T01:19:52.410Z,100.143
2024-03-26T01:20:52.408Z,100.214
2024-03-26T01:21:52.425Z,100.143
2024-03-26T01:22:52.437Z,100.143
2024-03-26T01:23:52.440Z,100.286
2024-03-26T01:24:52.481Z,100.214
2024-03-26T01:25:52.481Z,100.143
2024-03-26T01:26:52.468Z,100.143
2024-03-26T01:27:52.479Z,100.214
2024-03-26T01:28:52.486Z,100.286
2024-03-26T01:29:52.493Z,100.143
2024-03-26T01:30:52.527Z,100.286
2024-03-26T01:31:52.510Z,100.286
2024-03-26T01:32:52.513Z,100
2024-03-26T01:33:52.530Z,100.143
2024-03-26T01:34:52.552Z,100.143
2024-03-26T01:35:52.559Z,100.214
2024-03-26T01:36:52.567Z,100.286
2024-03-26T01:37:52.575Z,100.143
2024-03-26T01:38:52.604Z,100.143
2024-03-26T01:39:52.602Z,100.143
2024-03-26T01:40:52.607Z,100.357
2024-03-26T01:41:52.610Z,100.214
2024-03-26T01:42:52.610Z,100.214
2024-03-26T01:43:52.640Z,100.357
2024-03-26T01:44:52.634Z,100.143
2024-03-26T01:45:52.642Z,100.143
2024-03-26T01:46:52.658Z,100.143
2024-03-26T01:47:52.684Z,100.214
2024-03-26T01:48:52.684Z,100.357
2024-03-26T01:49:52.701Z,100.214
2024-03-26T01:50:52.698Z,100.143
2024-03-26T01:51:52.699Z,100.071
2024-03-26T01:52:52.751Z,100.143
2024-03-26T01:53:52.734Z,100.143
2024-03-26T01:54:52.729Z,100.286
2024-03-26T01:55:52.739Z,100.286
2024-03-26T01:56:52.741Z,100.214
2024-03-26T01:57:52.761Z,100.143
2024-03-26T01:58:52.774Z,100.214
2024-03-26T01:59:52.778Z,100.143
2024-03-26T02:00:52.788Z,100.286
2024-03-26T02:01:52.804Z,100.071
2024-03-26T02:02:52.802Z,100.143
2024-03-26T02:03:52.826Z,100.143
2024-03-26T02:04:52.826Z,100.286
2024-03-26T02:05:52.824Z,100.214
2024-03-26T02:06:52.873Z,100.214
2024-03-26T02:07:52.837Z,100.143
2024-03-26T02:08:52.848Z,100.143
2024-03-26T02:09:52.848Z,100.214
2024-03-26T02:10:52.874Z,100.286
2024-03-26T02:11:52.883Z,100.286
2024-03-26T02:12:52.891Z,100.071
2024-03-26T02:13:52.904Z,100.143
2024-03-26T02:14:52.909Z,100.071
2024-03-26T02:15:52.935Z,100.286
2024-03-26T02:16:52.931Z,100.071
2024-03-26T02:17:52.940Z,100.071
2024-03-26T02:18:52.949Z,100.214
2024-03-26T02:19:52.979Z,100.143
2024-03-26T02:20:52.982Z,100.286
2024-03-26T02:21:52.966Z,100.286
2024-03-26T02:22:52.989Z,100.071
2024-03-26T02:23:52.980Z,100.286
2024-03-26T02:24:52.982Z,100
2024-03-26T02:25:53.012Z,100.214
2024-03-26T02:26:53.005Z,100.286
2024-03-26T02:27:53.015Z,100.143
2024-03-26T02:28:53.029Z,100.071
2024-03-26T02:29:54.084Z,100.214
2024-03-26T02:30:53.032Z,100.286
2024-03-26T02:31:53.046Z,100.286
2024-03-26T02:32:53.052Z,100.071
2024-03-26T02:33:53.047Z,100.286
2024-03-26T02:34:53.058Z,100.143
2024-03-26T02:35:53.059Z,100.143
2024-03-26T02:36:53.077Z,100.071
2024-03-26T02:37:53.119Z,100.143
2024-03-26T02:38:53.109Z,100.214
2024-03-26T02:39:53.138Z,100.286
2024-03-26T02:40:53.141Z,100.143
2024-03-26T02:41:53.142Z,100.286
2024-03-26T02:42:53.146Z,100.143
2024-03-26T02:43:53.159Z,100.286
2024-03-26T02:44:53.153Z,100.143
2024-03-26T02:45:53.153Z,100.071
2024-03-26T02:46:53.169Z,100.214
2024-03-26T02:47:53.163Z,100.071
2024-03-26T02:48:53.178Z,99.9286
2024-03-26T02:49:53.182Z,100
2024-03-26T02:50:53.207Z,100.071
2024-03-26T02:51:53.210Z,100.071
2024-03-26T02:52:53.222Z,100
2024-03-26T02:53:53.226Z,100.214
2024-03-26T02:54:53.237Z,100.071
2024-03-26T02:55:53.246Z,100.143
2024-03-26T02:56:53.255Z,100.143
2024-03-26T02:57:53.280Z,100.071
2024-03-26T02:58:53.267Z,100.143
2024-03-26T02:59:53.275Z,100.286
2024-03-26T03:00:53.284Z,100.214
2024-03-26T03:01:53.324Z,100
2024-03-26T03:02:53.384Z,100.071
2024-03-26T03:03:53.321Z,100
2024-03-26T03:04:53.330Z,100.214
2024-03-26T03:05:53.344Z,100.071
2024-03-26T03:06:53.347Z,100.286
2024-03-26T03:07:53.354Z,100
2024-03-26T03:08:53.356Z,100.357
2024-03-26T03:09:53.364Z,100.071
2024-03-26T03:10:53.369Z,100
2024-03-26T03:11:53.383Z,100.143
2024-03-26T03:12:53.377Z,100
2024-03-26T03:13:53.397Z,100.143
2024-03-26T03:14:53.405Z,100.286
2024-03-26T03:15:53.425Z,100.143
2024-03-26T03:16:53.449Z,100.143
2024-03-26T03:17:53.446Z,100.214
2024-03-26T03:18:53.452Z,100.143
2024-03-26T03:19:53.469Z,100.214
2024-03-26T03:20:53.484Z,100.214
2024-03-26T03:21:53.490Z,100
2024-03-26T03:22:53.503Z,100.214
2024-03-26T03:23:53.507Z,100.143
2024-03-26T03:24:53.498Z,100.214
2024-03-26T03:25:53.515Z,100.214
2024-03-26T03:26:53.517Z,100.214
2024-03-26T03:27:53.523Z,100.214
2024-03-26T03:28:53.537Z,100.143
2024-03-26T03:29:53.541Z,100.143
2024-03-26T03:30:53.587Z,100.143
2024-03-26T03:31:53.567Z,99.9286
2024-03-26T03:32:53.569Z,100.286
2024-03-26T03:33:53.583Z,99.9286
2024-03-26T03:34:53.582Z,100
2024-03-26T03:35:53.595Z,100.071
2024-03-26T03:36:53.588Z,100.071
2024-03-26T03:37:53.597Z,100.214
2024-03-26T03:38:53.603Z,100.071
2024-03-26T03:39:53.624Z,100.143
2024-03-26T03:40:53.631Z,99.9286
2024-03-26T03:41:53.645Z,100.143
2024-03-26T03:42:53.650Z,100.071
2024-03-26T03:43:53.671Z,100
2024-03-26T03:44:53.687Z,100.143
2024-03-26T03:45:53.686Z,100.286
2024-03-26T03:46:53.688Z,100.214
2024-03-26T03:47:53.693Z,100.071
2024-03-26T03:48:53.696Z,100.143
2024-03-26T03:49:53.713Z,100
2024-03-26T03:50:53.709Z,100
2024-03-26T03:51:53.722Z,99.9286
2024-03-26T03:52:53.746Z,100.143
2024-03-26T03:53:54.522Z,100.071
2024-03-26T03:54:53.756Z,100.071
2024-03-26T03:55:53.763Z,100.143
2024-03-26T03:56:53.771Z,100
2024-03-26T03:57:53.787Z,100.143
2024-03-26T03:58:53.797Z,100.143
2024-03-26T03:59:53.794Z,100
2024-03-26T04:00:53.808Z,100.143
2024-03-26T04:01:53.814Z,100
2024-03-26T04:02:53.832Z,100.143
2024-03-26T04:03:53.825Z,100.071
2024-03-26T04:04:53.841Z,100.071
2024-03-26T04:05:53.842Z,100
2024-03-26T04:06:53.863Z,100.143
2024-03-26T04:07:53.878Z,100.143
2024-03-26T04:08:53.880Z,100.071
2024-03-26T04:09:53.886Z,100.143
2024-03-26T04:10:53.888Z,100.071
2024-03-26T04:11:55.452Z,100.143
2024-03-26T04:12:53.909Z,100.071
2024-03-26T04:13:53.906Z,100
2024-03-26T04:14:53.910Z,100.214
2024-03-26T04:15:53.920Z,100.071
2024-03-26T04:16:53.988Z,100.071
2024-03-26T04:17:53.941Z,99.9286
2024-03-26T04:18:53.950Z,100.071
2024-03-26T04:19:53.958Z,100.071
2024-03-26T04:20:53.971Z,100.143
2024-03-26T04:21:54.159Z,100.071
2024-03-26T04:22:53.985Z,100.143
2024-03-26T04:23:53.988Z,100.071
2024-03-26T04:24:53.997Z,100.214
2024-03-26T04:25:54.000Z,100.071
2024-03-26T04:26:54.014Z,100.071
2024-03-26T04:27:54.009Z,100.071
2024-03-26T04:28:54.021Z,100.071
2024-03-26T04:29:54.039Z,100.071
2024-03-26T04:30:54.076Z,100.143
2024-03-26T04:31:54.058Z,100.143
2024-03-26T04:32:54.062Z,100.143
2024-03-26T04:33:54.078Z,100.143
2024-03-26T04:34:54.073Z,100.143
2024-03-26T04:35:54.091Z,100.143
2024-03-26T04:36:54.101Z,100.143
2024-03-26T04:37:54.112Z,100.214
2024-03-26T04:38:54.105Z,100.214
2024-03-26T04:39:54.113Z,100.143
2024-03-26T04:40:54.124Z,100.143
2024-03-26T04:41:54.132Z,100.071
2024-03-26T04:42:54.156Z,100.214
2024-03-26T04:43:54.171Z,100.143
2024-03-26T04:44:54.194Z,100.143
2024-03-26T04:45:54.189Z,100.071
2024-03-26T04:46:54.196Z,100.214
2024-03-26T04:47:54.209Z,100.214
2024-03-26T04:48:54.216Z,100.143
2024-03-26T04:49:54.231Z,100.214
2024-03-26T04:50:54.221Z,99.9286
2024-03-26T04:51:54.231Z,100.214
2024-03-26T04:52:54.227Z,100.071
2024-03-26T04:53:54.260Z,100.143
2024-03-26T04:54:54.242Z,100.071
2024-03-26T04:55:54.258Z,100.143
2024-03-26T04:56:56.159Z,100
2024-03-26T04:57:54.274Z,100.214
2024-03-26T04:58:54.296Z,100.071
2024-03-26T04:59:54.301Z,100.071
2024-03-26T05:00:54.307Z,100.143
2024-03-26T05:01:54.309Z,100.286
2024-03-26T05:02:54.332Z,100
2024-03-26T05:03:54.326Z,100.214
2024-03-26T05:04:54.326Z,100.214
2024-03-26T05:05:54.350Z,100.214
2024-03-26T05:06:54.344Z,100.214
2024-03-26T05:07:54.358Z,100.143
2024-03-26T05:08:54.379Z,100.143
2024-03-26T05:09:54.372Z,100.143
2024-03-26T05:10:54.379Z,100.214
2024-03-26T05:11:54.398Z,100.143
2024-03-26T05:12:54.415Z,100.214
2024-03-26T05:13:54.408Z,100.143
2024-03-26T05:14:54.430Z,100.143
2024-03-26T05:15:54.428Z,100.071
2024-03-26T05:16:54.428Z,100.214
2024-03-26T05:17:54.427Z,100.071
2024-03-26T05:18:54.433Z,100.214
2024-03-26T05:19:54.445Z,100.143
2024-03-26T05:20:54.497Z,100.214
2024-03-26T05:21:54.482Z,100.143
2024-03-26T05:22:54.484Z,100.286
2024-03-26T05:23:54.516Z,100.143
2024-03-26T05:24:54.498Z,100.143
2024-03-26T05:25:54.508Z,100.214
2024-03-26T05:26:54.579Z,100.143
2024-03-26T05:27:54.533Z,100.214
2024-03-26T05:28:54.599Z,100.143
2024-03-26T05:29:54.560Z,100.143
2024-03-26T05:30:54.564Z,100.357
2024-03-26T05:31:54.563Z,100
2024-03-26T05:32:54.610Z,100
2024-03-26T05:33:54.586Z,100.286
2024-03-26T05:34:54.600Z,100
2024-03-26T05:35:54.664Z,100.143
2024-03-26T05:36:54.619Z,100
2024-03-26T05:37:54.630Z,100.214
2024-03-26T05:38:54.657Z,100.071
2024-03-26T05:39:54.642Z,100
2024-03-26T05:40:54.656Z,100.071
2024-03-26T05:41:54.678Z,100.071
2024-03-26T05:42:54.663Z,100.286
2024-03-26T05:43:54.662Z,100.143
2024-03-26T05:44:54.711Z,100.071
2024-03-26T05:45:54.690Z,100.071
2024-03-26T05:46:54.714Z,100.143
2024-03-26T05:47:54.711Z,100.071
2024-03-26T05:48:54.729Z,100.214
2024-03-26T05:49:54.745Z,100.143
2024-03-26T05:50:54.760Z,100.214
2024-03-26T05:51:54.758Z,100.214
2024-03-26T05:52:54.779Z,100.214
2024-03-26T05:53:54.815Z,100.214
2024-03-26T05:54:54.772Z,100.214
2024-03-26T05:55:54.771Z,100.286
2024-03-26T05:56:54.849Z,100.143
2024-03-26T05:57:54.782Z,100.214
2024-03-26T05:58:54.811Z,100.143
2024-03-26T05:59:54.843Z,100.286
2024-03-26T06:00:54.816Z,100.214
2024-03-26T06:01:54.840Z,100.214
2024-03-26T06:02:54.893Z,100.286
2024-03-26T06:03:54.858Z,100.071
2024-03-26T06:04:54.850Z,100.071
2024-03-26T06:05:54.874Z,100.071
2024-03-26T06:06:54.859Z,100.357
2024-03-26T06:07:54.866Z,100.071
2024-03-26T06:08:54.880Z,100.071
2024-03-26T06:09:54.887Z,100
2024-03-26T06:10:54.900Z,100.143
2024-03-26T06:11:54.968Z,100.071
2024-03-26T06:12:54.944Z,100.143
2024-03-26T06:13:54.939Z,100.071
2024-03-26T06:14:54.962Z,100.143
2024-03-26T06:15:54.941Z,100.071
2024-03-26T06:16:54.952Z,100.214
2024-03-26T06:17:54.993Z,100.071
2024-03-26T06:18:54.966Z,100.214
2024-03-26T06:19:54.978Z,100.071
2024-03-26T06:20:55.024Z,100.214
2024-03-26T06:21:54.984Z,100
2024-03-26T06:22:55.005Z,100.071
2024-03-26T06:23:55.004Z,100.214
2024-03-26T06:24:55.013Z,100.143
2024-03-26T06:25:55.025Z,100.143
2024-03-26T06:26:55.063Z,100.071
2024-03-26T06:27:55.049Z,100.143
2024-03-26T06:28:55.052Z,100
2024-03-26T06:29:55.107Z,100
2024-03-26T06:30:55.067Z,100.143
2024-03-26T06:31:55.092Z,100.143
2024-03-26T06:32:55.167Z,100.071
2024-03-26T06:33:55.088Z,100.071
2024-03-26T06:34:55.086Z,100.214
2024-03-26T06:35:55.125Z,100.071
2024-03-26T06:36:55.138Z,100
2024-03-26T06:37:55.114Z,100
2024-03-26T06:38:55.155Z,100.214
2024-03-26T06:39:55.140Z,100.071
2024-03-26T06:40:56.941Z,100.071
2024-03-26T06:41:55.176Z,100.071
2024-03-26T06:42:55.179Z,100.071
2024-03-26T06:43:55.166Z,100.143
2024-03-26T06:44:55.216Z,99.9286
2024-03-26T06:45:55.183Z,100.071
2024-03-26T06:46:55.187Z,100.143
2024-03-26T06:47:55.234Z,100.071
2024-03-26T06:48:55.202Z,99.9286
2024-03-26T06:49:55.214Z,100.071
2024-03-26T06:50:55.264Z,100.143
2024-03-26T06:51:55.229Z,100.214
2024-03-26T06:52:55.245Z,100.143
2024-03-26T06:53:55.279Z,100.071
2024-03-26T06:54:55.260Z,100.143
2024-03-26T06:55:55.256Z,100.071
2024-03-26T06:56:55.318Z,100.143
2024-03-26T06:57:55.277Z,100
2024-03-26T06:58:55.277Z,100.143
2024-03-26T06:59:55.353Z,100
2024-03-26T07:00:55.289Z,100.071
2024-03-26T07:01:55.304Z,100.214
2024-03-26T07:02:55.353Z,100.071
2024-03-26T07:03:55.327Z,100.143
2024-03-26T07:04:55.322Z,100
2024-03-26T07:05:55.352Z,100.071
2024-03-26T07:06:55.349Z,100.071
2024-03-26T07:07:55.355Z,99.8571
2024-03-26T07:08:55.454Z,100
2024-03-26T07:09:55.382Z,100
2024-03-26T07:10:55.374Z,100
2024-03-26T07:11:55.430Z,100.071
2024-03-26T07:12:56.327Z,100.214
2024-03-26T07:13:55.412Z,100.071
2024-03-26T07:14:55.411Z,100
2024-03-26T07:15:55.420Z,100.071
2024-03-26T07:16:55.444Z,100.143
2024-03-26T07:17:55.467Z,100
2024-03-26T07:18:55.458Z,100.286
2024-03-26T07:19:55.456Z,100.214
2024-03-26T07:20:55.495Z,100.214
2024-03-26T07:21:55.491Z,100.143
2024-03-26T07:22:55.490Z,100
2024-03-26T07:23:55.499Z,100.143
2024-03-26T07:24:55.496Z,100.071
2024-03-26T07:25:55.499Z,100.071
2024-03-26T07:26:55.589Z,99.9286
2024-03-26T07:27:55.543Z,100
2024-03-26T07:28:55.547Z,100.071
2024-03-26T07:29:55.542Z,100.071
2024-03-26T07:30:55.545Z,100.143
2024-03-26T07:31:55.553Z,99.8571
2024-03-26T07:32:55.613Z,99.8571
2024-03-26T07:33:55.570Z,99.8571
2024-03-26T07:34:55.583Z,100
2024-03-26T07:35:55.614Z,100.071
2024-03-26T07:36:55.625Z,100.071
2024-03-26T07:37:55.598Z,100.071
2024-03-26T07:38:55.642Z,100.071
2024-03-26T07:39:55.617Z,100.071
2024-03-26T07:40:55.644Z,100.071
2024-03-26T07:41:55.686Z,100.143
2024-03-26T07:42:55.683Z,100.143
2024-03-26T07:43:55.658Z,100.071
2024-03-26T07:44:55.675Z,100.143
2024-03-26T07:45:55.673Z,99.9286
2024-03-26T07:46:55.708Z,100.071
2024-03-26T07:47:55.690Z,100.071
2024-03-26T07:48:55.701Z,100.143
2024-03-26T07:49:55.807Z,100.071
2024-03-26T07:50:55.761Z,100
2024-03-26T07:51:57.444Z,99.9286
2024-03-26T07:52:55.742Z,100
2024-03-26T07:53:55.739Z,99.9286
2024-03-26T07:54:55.812Z,99.9286
2024-03-26T07:55:55.869Z,100.071
2024-03-26T07:56:55.786Z,100.071
2024-03-26T07:57:55.763Z,100.143
2024-03-26T07:58:55.844Z,100
2024-03-26T07:59:55.825Z,100
2024-03-26T08:00:55.779Z,100
2024-03-26T08:01:55.792Z,100
2024-03-26T08:02:55.799Z,100.071
2024-03-26T08:03:55.823Z,100.071
2024-03-26T08:04:55.804Z,100
2024-03-26T08:05:55.825Z,100
2024-03-26T08:06:55.890Z,100.143
2024-03-26T08:07:55.873Z,99.8571
2024-03-26T08:08:55.852Z,100.071
2024-03-26T08:09:55.870Z,99.9286
2024-03-26T08:10:55.923Z,99.8571
2024-03-26T08:11:55.879Z,99.8571
2024-03-26T08:12:55.882Z,99.8571
2024-03-26T08:13:55.960Z,99.8571
2024-03-26T08:14:55.925Z,100
2024-03-26T08:15:55.912Z,99.8571
2024-03-26T08:16:55.909Z,100
2024-03-26T08:17:56.734Z,100
2024-03-26T08:18:55.935Z,99.8571
2024-03-26T08:19:55.928Z,99.8571
2024-03-26T08:20:55.979Z,100
2024-03-26T08:21:55.959Z,100
2024-03-26T08:22:55.956Z,100
2024-03-26T08:23:55.976Z,100
2024-03-26T08:24:56.873Z,99.8571
2024-03-26T08:25:55.994Z,100.071
2024-03-26T08:26:55.985Z,100.143
2024-03-26T08:27:56.093Z,100
2024-03-26T08:28:56.000Z,100
2024-03-26T08:29:56.031Z,100
2024-03-26T08:30:55.996Z,100.143
2024-03-26T08:31:56.051Z,100.214
2024-03-26T08:32:56.122Z,100.214
2024-03-26T08:33:56.059Z,100
2024-03-26T08:34:56.036Z,100
2024-03-26T08:35:56.072Z,100
2024-03-26T08:36:56.054Z,100
2024-03-26T08:37:56.060Z,100.071
2024-03-26T08:38:56.141Z,100
2024-03-26T08:39:56.080Z,100
2024-03-26T08:40:56.085Z,100.143
2024-03-26T08:41:56.110Z,100
2024-03-26T08:42:56.092Z,100
2024-03-26T08:43:56.101Z,100.143
2024-03-26T08:44:56.103Z,100.071
2024-03-26T08:45:56.116Z,100
2024-03-26T08:46:56.140Z,100
2024-03-26T08:47:56.197Z,100
2024-03-26T08:48:56.158Z,100.071
2024-03-26T08:49:56.159Z,100
2024-03-26T08:50:56.199Z,100
2024-03-26T08:51:56.179Z,99.9286
2024-03-26T08:52:56.181Z,99.9286
2024-03-26T08:53:56.200Z,99.9286
2024-03-26T08:54:56.203Z,100.286
2024-03-26T08:56:00.348Z,100
2024-03-26T08:56:56.210Z,100
2024-03-26T08:57:56.214Z,100.214
2024-03-26T08:58:56.233Z,100
2024-03-26T08:59:56.258Z,100.143
2024-03-26T09:00:56.256Z,100
2024-03-26T09:01:56.279Z,100.143
2024-03-26T09:02:56.322Z,100.071
2024-03-26T09:03:56.293Z,99.9286
2024-03-26T09:04:56.312Z,100.071
2024-03-26T09:05:56.320Z,99.9286
2024-03-26T09:06:56.310Z,100.071
2024-03-26T09:07:56.321Z,99.9286
2024-03-26T09:08:56.324Z,100
2024-03-26T09:09:56.330Z,99.9286
2024-03-26T09:10:56.333Z,99.9286
2024-03-26T09:11:56.343Z,100.071
2024-03-26T09:12:56.349Z,99.8571
2024-03-26T09:13:56.360Z,100
2024-03-26T09:14:56.409Z,99.9286
2024-03-26T09:15:56.373Z,100
2024-03-26T09:16:56.387Z,99.9286
2024-03-26T09:17:56.392Z,100
2024-03-26T09:19:01.014Z,100
2024-03-26T09:19:56.408Z,99.9286
2024-03-26T09:20:56.431Z,99.8571
2024-03-26T09:21:56.437Z,100.071
2024-03-26T09:22:56.448Z,99.9286
2024-03-26T09:23:56.445Z,99.9286
2024-03-26T09:24:56.432Z,99.9286
2024-03-26T09:25:56.448Z,100.071
2024-03-26T09:26:56.472Z,99.8571
2024-03-26T09:27:56.508Z,100
2024-03-26T09:28:56.486Z,100
2024-03-26T09:29:56.540Z,100
2024-03-26T09:30:56.509Z,100
2024-03-26T09:31:56.509Z,100
2024-03-26T09:32:56.556Z,100
2024-03-26T09:33:56.517Z,100.071
2024-03-26T09:34:56.529Z,100
2024-03-26T09:35:56.579Z,99.8571
2024-03-26T09:36:56.538Z,99.8571
2024-03-26T09:37:56.540Z,100
2024-03-26T09:39:06.323Z,99.8571
2024-03-26T09:39:56.565Z,100
2024-03-26T09:40:56.568Z,99.9286
2024-03-26T09:41:56.596Z,99.7857
2024-03-26T09:42:56.583Z,99.9286
2024-03-26T09:43:56.591Z,99.8571
2024-03-26T09:45:05.226Z,100
2024-03-26T09:45:56.611Z,100
2024-03-26T09:46:56.628Z,99.8571
2024-03-26T09:47:56.633Z,99.7857
2024-03-26T09:48:56.622Z,99.8571
2024-03-26T09:49:56.626Z,99.8571
2024-03-26T09:50:56.634Z,100.071
2024-03-26T09:51:56.643Z,100
2024-03-26T09:52:56.653Z,100.071
2024-03-26T09:53:56.668Z,99.7857
2024-03-26T09:54:56.681Z,99.7857
2024-03-26T09:55:56.689Z,99.7143
2024-03-26T09:56:56.701Z,99.7857
2024-03-26T09:57:56.699Z,99.8571
2024-03-26T09:58:56.706Z,99.8571
2024-03-26T09:59:56.760Z,99.8571
2024-03-26T10:00:56.730Z,99.7857
2024-03-26T10:01:56.722Z,99.8571
2024-03-26T10:02:56.734Z,100.071
2024-03-26T10:03:56.730Z,99.7857
2024-03-26T10:04:56.752Z,99.7857
2024-03-26T10:05:56.763Z,99.9286
2024-03-26T10:06:56.768Z,99.9286
2024-03-26T10:07:56.774Z,99.6429
2024-03-26T10:08:56.811Z,99.7143
2024-03-26T10:09:56.898Z,99.8571
2024-03-26T10:10:56.805Z,99.8571
2024-03-26T10:11:56.815Z,99.7857
2024-03-26T10:12:56.816Z,99.9286
2024-03-26T10:13:56.823Z,99.9286
2024-03-26T10:14:56.871Z,99.8571
2024-03-26T10:15:56.828Z,99.7857
2024-03-26T10:16:56.840Z,99.7857
2024-03-26T10:17:56.874Z,99.8571
2024-03-26T10:18:56.856Z,100
2024-03-26T10:19:56.872Z,99.8571
2024-03-26T10:20:56.892Z,99.7857
2024-03-26T10:21:56.887Z,99.7857
2024-03-26T10:22:56.924Z,99.8571
2024-03-26T10:23:56.941Z,99.9286
2024-03-26T10:24:56.911Z,99.9286
2024-03-26T10:25:56.916Z,99.7857
2024-03-26T10:26:56.944Z,99.7857
2024-03-26T10:27:56.927Z,99.7143
2024-03-26T10:28:56.942Z,99.7143
2024-03-26T10:29:56.947Z,99.7857
2024-03-26T10:30:56.979Z,99.7143
2024-03-26T10:31:56.976Z,99.9286
2024-03-26T10:32:57.032Z,99.7857
2024-03-26T10:33:57.000Z,99.9286
2024-03-26T10:34:57.012Z,99.8571
2024-03-26T10:35:57.043Z,99.7857
2024-03-26T10:36:57.027Z,99.7857
2024-03-26T10:38:04.388Z,99.7857
2024-03-26T10:39:02.685Z,99.9286
2024-03-26T10:39:57.041Z,99.7857
2024-03-26T10:40:58.534Z,99.7857
2024-03-26T10:41:57.057Z,99.7857
2024-03-26T10:42:57.074Z,99.7857
2024-03-26T10:43:57.079Z,99.6429
2024-03-26T10:44:57.084Z,99.7143
2024-03-26T10:46:03.510Z,99.7857
2024-03-26T10:46:57.136Z,99.9286
2024-03-26T10:47:57.125Z,99.7143
2024-03-26T10:49:01.460Z,99.7143
2024-03-26T10:49:57.145Z,99.7143
2024-03-26T10:50:57.144Z,99.7857
2024-03-26T10:51:57.182Z,99.9286
2024-03-26T10:52:57.155Z,99.7143
2024-03-26T10:53:57.164Z,99.9286
2024-03-26T10:54:57.167Z,99.7857
2024-03-26T10:55:57.174Z,99.7857
2024-03-26T10:56:57.205Z,99.9286
2024-03-26T10:57:57.407Z,99.7857
2024-03-26T10:58:57.209Z,99.9286
2024-03-26T10:59:57.217Z,99.8571
2024-03-26T11:00:57.231Z,99.9286
2024-03-26T11:01:57.235Z,99.7857
2024-03-26T11:02:57.266Z,99.9286
2024-03-26T11:03:57.251Z,99.7857
2024-03-26T11:04:57.258Z,99.7857
2024-03-26T11:05:57.283Z,99.6429
2024-03-26T11:06:57.260Z,99.7857
2024-03-26T11:07:57.271Z,99.7857
2024-03-26T11:08:57.275Z,99.7143
2024-03-26T11:09:57.369Z,99.7857
2024-03-26T11:10:57.329Z,99.7143
2024-03-26T11:11:57.320Z,99.7857
2024-03-26T11:12:57.343Z,99.7143
2024-03-26T11:13:57.330Z,99.7143
2024-03-26T11:14:57.341Z,99.6429
2024-03-26T11:15:57.350Z,99.7857
2024-03-26T11:16:57.358Z,99.8571
2024-03-26T11:17:57.359Z,99.7143
2024-03-26T11:18:57.389Z,99.7143
2024-03-26T11:19:57.387Z,99.7143
2024-03-26T11:20:57.368Z,99.7143
2024-03-26T11:21:57.389Z,99.7143
2024-03-26T11:22:57.393Z,99.7857
2024-03-26T11:23:57.408Z,99.7857
2024-03-26T11:24:57.445Z,99.7857
2024-03-26T11:25:57.458Z,99.7857
2024-03-26T11:26:57.447Z,99.7857
2024-03-26T11:27:57.458Z,99.7857
2024-03-26T11:28:57.465Z,99.7857
2024-03-26T11:29:57.470Z,99.6429
2024-03-26T11:30:57.477Z,99.6429
2024-03-26T11:31:57.487Z,99.7857
2024-03-26T11:32:57.498Z,99.7857
2024-03-26T11:33:57.510Z,99.7857
2024-03-26T11:34:57.516Z,99.7143
2024-03-26T11:35:57.497Z,99.7857
2024-03-26T11:36:57.523Z,99.7857
2024-03-26T11:37:59.605Z,99.6429
2024-03-26T11:38:57.561Z,99.6429
2024-03-26T11:39:57.560Z,99.6429
2024-03-26T11:40:57.573Z,99.7857
2024-03-26T11:41:57.606Z,99.7143
2024-03-26T11:42:57.573Z,99.6429
2024-03-26T11:43:57.581Z,99.6429
2024-03-26T11:44:57.594Z,99.7143
2024-03-26T11:45:57.601Z,99.6429
2024-03-26T11:46:57.607Z,99.6429
2024-03-26T11:47:57.642Z,99.6429
2024-03-26T11:48:57.619Z,99.7143
2024-03-26T11:49:57.640Z,99.6429
2024-03-26T11:50:57.645Z,99.7857
2024-03-26T11:51:57.656Z,99.7143
2024-03-26T11:52:57.680Z,99.7857
2024-03-26T11:53:57.682Z,99.7857
2024-03-26T11:54:57.693Z,99.7857
2024-03-26T11:55:57.698Z,99.5
2024-03-26T11:56:57.703Z,99.5
2024-03-26T11:57:57.706Z,99.7857
2024-03-26T11:58:57.729Z,99.6429
2024-03-26T11:59:57.734Z,99.5714
2024-03-26T12:00:57.738Z,99.6429
2024-03-26T12:01:57.748Z,99.7143
2024-03-26T12:02:57.746Z,99.8571
2024-03-26T12:03:57.750Z,99.7143
2024-03-26T12:04:57.765Z,99.5714
2024-03-26T12:05:57.773Z,99.5
2024-03-26T12:06:57.795Z,99.6429
2024-03-26T12:07:57.794Z,99.5714
2024-03-26T12:08:57.799Z,99.5714
2024-03-26T12:09:57.813Z,99.7143
2024-03-26T12:10:57.825Z,99.7143
2024-03-26T12:11:57.822Z,99.7143
2024-03-26T12:12:57.827Z,99.5714
2024-03-26T12:13:57.831Z,99.6429
2024-03-26T12:14:57.834Z,99.7857
2024-03-26T12:15:57.838Z,99.7143
2024-03-26T12:16:57.846Z,99.5
2024-03-26T12:17:57.870Z,99.5714